Time;durP1;ratioP1;P1;durP2;ratioP2;P2;SDS_P1;SDS_P2;PMS_P1;PMS_P2;Temp;Humidity;BMP_temperature;BMP_pressure;BME280_temperature;BME280_humidity;BME280_pressure;Samples;Min_cycle;Max_cycle;Signal;HPM_P1;HPM_P2
2021/08/08 00:01:34;;;;;;;8.63;1.40;;;;;;;;;;4976120;28;20934;-78
2021/08/08 00:04:00;;;;;;;3.10;1.17;;;;;;;;;;4993432;28;20455;-78
2021/08/08 00:06:26;;;;;;;5.97;1.90;;;;;;;;;;4993393;28;20901;-79
2021/08/08 00:08:52;;;;;;;6.10;1.57;;;;;;;;;;4993448;28;20474;-78
2021/08/08 00:11:18;;;;;;;1.53;1.20;;;;;;;;;;4993397;28;20410;-78
2021/08/08 00:13:44;;;;;;;1.70;1.37;;;;;;;;;;4995475;28;20415;-77
2021/08/08 00:16:10;;;;;;;2.60;1.50;;;;;;;;;;4997141;28;20535;-78
2021/08/08 00:18:36;;;;;;;1.57;1.40;;;;;;;;;;4997081;28;20422;-78
2021/08/08 00:21:02;;;;;;;3.23;1.20;;;;;;;;;;4997007;28;20461;-79
2021/08/08 00:23:28;;;;;;;3.87;1.27;;;;;;;;;;4997016;28;20415;-78
2021/08/08 00:25:54;;;;;;;2.07;1.20;;;;;;;;;;4979400;28;20421;-78
2021/08/08 00:28:20;;;;;;;2.33;1.60;;;;;;;;;;4997019;28;20399;-78
2021/08/08 00:30:46;;;;;;;2.30;1.20;;;;;;;;;;4997089;28;20496;-78
2021/08/08 00:33:12;;;;;;;4.97;1.53;;;;;;;;;;4979101;28;20497;-78
2021/08/08 00:35:42;;;;;;;1.87;1.70;;;;;;;;;;4996441;28;20573;-78
2021/08/08 00:38:08;;;;;;;3.60;1.50;;;;;;;;;;4996820;28;20498;-78
2021/08/08 00:40:34;;;;;;;5.83;1.67;;;;;;;;;;4997131;28;20472;-78
2021/08/08 00:43:00;;;;;;;2.47;1.90;;;;;;;;;;4996710;28;20941;-78
2021/08/08 00:45:26;;;;;;;4.20;1.60;;;;;;;;;;4996413;28;20464;-80
2021/08/08 00:47:52;;;;;;;2.43;1.70;;;;;;;;;;4996893;28;20481;-78
2021/08/08 00:50:18;;;;;;;3.57;1.40;;;;;;;;;;4995409;28;20845;-78
2021/08/08 00:52:44;;;;;;;3.43;1.53;;;;;;;;;;4996326;28;20880;-79
2021/08/08 00:55:11;;;;;;;3.60;1.87;;;;;;;;;;4996183;28;20485;-79
2021/08/08 00:57:37;;;;;;;3.27;2.20;;;;;;;;;;4996253;28;20425;-79
2021/08/08 01:00:07;;;;;;;4.03;1.60;;;;;;;;;;4996455;28;20480;-79
2021/08/08 01:02:34;;;;;;;4.43;2.23;;;;;;;;;;4996344;28;20411;-78
2021/08/08 01:05:08;;;;;;;3.03;1.60;;;;;;;;;;4995998;28;20548;-78
2021/08/08 01:07:44;;;;;;;3.17;1.50;;;;;;;;;;4996113;28;20373;-78
2021/08/08 01:10:10;;;;;;;3.00;2.07;;;;;;;;;;4978753;28;20400;-79
2021/08/08 01:12:38;;;;;;;2.90;1.70;;;;;;;;;;4996279;28;20523;-78
2021/08/08 01:15:04;;;;;;;5.70;2.07;;;;;;;;;;4995809;28;20521;-78
2021/08/08 01:17:31;;;;;;;4.47;1.70;;;;;;;;;;4996007;28;20386;-79
2021/08/08 01:20:03;;;;;;;2.50;1.50;;;;;;;;;;4995968;28;20414;-78
2021/08/08 01:22:30;;;;;;;3.20;1.47;;;;;;;;;;4995920;28;20472;-78
2021/08/08 01:25:00;;;;;;;4.77;1.70;;;;;;;;;;4994289;28;20442;-77
2021/08/08 01:27:27;;;;;;;4.20;1.97;;;;;;;;;;4995907;28;20452;-79
2021/08/08 01:29:53;;;;;;;3.43;1.50;;;;;;;;;;4978328;28;20431;-78
2021/08/08 01:32:20;;;;;;;2.43;2.23;;;;;;;;;;4995951;28;20751;-77
2021/08/08 01:34:47;;;;;;;4.60;1.73;;;;;;;;;;4995350;28;20501;-78
2021/08/08 01:37:13;;;;;;;6.03;2.10;;;;;;;;;;4995860;28;20415;-77
2021/08/08 01:39:40;;;;;;;4.97;2.27;;;;;;;;;;4995612;28;20910;-77
2021/08/08 01:42:08;;;;;;;5.87;1.97;;;;;;;;;;4995642;28;20817;-78
2021/08/08 01:44:46;;;;;;;4.80;2.33;;;;;;;;;;4995146;28;20409;-77
2021/08/08 01:47:13;;;;;;;5.03;1.90;;;;;;;;;;4995516;28;20414;-77
2021/08/08 01:49:43;;;;;;;2.20;1.53;;;;;;;;;;4977985;28;20393;-78
2021/08/08 01:52:09;;;;;;;5.83;1.90;;;;;;;;;;4995361;28;20390;-78
2021/08/08 01:54:35;;;;;;;10.70;2.07;;;;;;;;;;4994858;28;20462;-78
2021/08/08 01:57:01;;;;;;;3.57;2.00;;;;;;;;;;4995490;28;20427;-77
2021/08/08 01:59:27;;;;;;;6.63;2.30;;;;;;;;;;4978034;28;20404;-77
2021/08/08 02:01:53;;;;;;;1.77;1.50;;;;;;;;;;4995198;28;20393;-77
2021/08/08 02:04:19;;;;;;;4.73;1.80;;;;;;;;;;4977292;28;20418;-77
2021/08/08 02:06:47;;;;;;;2.40;1.50;;;;;;;;;;4995250;28;20418;-78
2021/08/08 02:09:13;;;;;;;2.20;1.83;;;;;;;;;;4995235;28;20410;-77
2021/08/08 02:11:39;;;;;;;4.23;2.40;;;;;;;;;;4994919;28;20381;-78
2021/08/08 02:14:05;;;;;;;5.90;1.83;;;;;;;;;;4994702;28;20771;-78
2021/08/08 02:16:32;;;;;;;4.23;1.67;;;;;;;;;;4994968;28;20505;-77
2021/08/08 02:18:58;;;;;;;6.47;2.47;;;;;;;;;;4994923;28;20772;-77
2021/08/08 02:21:24;;;;;;;4.20;2.00;;;;;;;;;;4994945;28;20403;-77
2021/08/08 02:23:50;;;;;;;4.83;2.30;;;;;;;;;;4994440;28;20403;-77
2021/08/08 02:26:16;;;;;;;5.57;1.57;;;;;;;;;;4994531;28;20405;-77
2021/08/08 02:28:45;;;;;;;6.03;2.20;;;;;;;;;;4994849;28;20421;-78
2021/08/08 02:31:12;;;;;;;4.67;2.23;;;;;;;;;;4994514;28;20406;-78
2021/08/08 02:33:38;;;;;;;3.67;2.33;;;;;;;;;;4994482;28;20748;-77
2021/08/08 02:36:04;;;;;;;5.37;2.20;;;;;;;;;;4993651;28;20523;-77
2021/08/08 02:38:31;;;;;;;4.07;1.70;;;;;;;;;;4994345;28;20421;-76
2021/08/08 02:41:00;;;;;;;4.90;1.70;;;;;;;;;;4994611;28;20418;-77
2021/08/08 02:43:26;;;;;;;4.90;2.10;;;;;;;;;;4994183;28;20385;-77
2021/08/08 02:45:54;;;;;;;5.47;2.30;;;;;;;;;;4994645;28;20442;-76
2021/08/08 02:48:20;;;;;;;8.53;3.27;;;;;;;;;;4994362;28;20398;-77
2021/08/08 02:50:46;;;;;;;4.10;1.73;;;;;;;;;;4994436;28;20426;-76
2021/08/08 02:53:12;;;;;;;4.70;1.87;;;;;;;;;;4994267;28;20427;-77
2021/08/08 02:55:40;;;;;;;6.20;1.83;;;;;;;;;;4993990;28;20456;-76
2021/08/08 02:58:09;;;;;;;3.20;2.10;;;;;;;;;;4994138;28;20384;-77
2021/08/08 03:00:35;;;;;;;5.00;2.30;;;;;;;;;;4993968;28;20830;-76
2021/08/08 03:03:01;;;;;;;5.40;2.40;;;;;;;;;;4993930;28;20424;-77
2021/08/08 03:05:27;;;;;;;4.73;2.20;;;;;;;;;;4993805;28;20409;-77
2021/08/08 03:07:56;;;;;;;6.33;1.90;;;;;;;;;;4994010;28;20437;-77
2021/08/08 03:10:22;;;;;;;4.50;2.00;;;;;;;;;;4992799;28;20445;-76
2021/08/08 03:12:48;;;;;;;6.60;2.80;;;;;;;;;;4993596;28;20419;-77
2021/08/08 03:21:15;;;;;;;9.63;2.70;;;;;;;;;;4914540;29;20409;-77
2021/08/08 03:23:50;;;;;;;5.43;2.10;;;;;;;;;;4954920;28;20415;-77
2021/08/08 03:26:25;;;;;;;6.47;2.27;;;;;;;;;;4993657;28;20457;-77
2021/08/08 03:29:00;;;;;;;5.70;2.30;;;;;;;;;;4993704;28;20449;-77
2021/08/08 03:31:31;;;;;;;9.70;2.37;;;;;;;;;;4993711;28;20425;-76
2021/08/08 03:33:57;;;;;;;7.80;2.27;;;;;;;;;;4993568;28;20403;-76
2021/08/08 03:36:32;;;;;;;4.20;1.80;;;;;;;;;;4993840;28;20444;-77
2021/08/08 03:39:01;;;;;;;9.70;1.80;;;;;;;;;;4993957;28;20893;-77
2021/08/08 03:41:37;;;;;;;4.20;2.07;;;;;;;;;;4993838;28;20492;-77
2021/08/08 03:44:09;;;;;;;6.10;2.63;;;;;;;;;;4975892;28;20433;-77
2021/08/08 03:46:35;;;;;;;6.40;2.40;;;;;;;;;;4993581;28;20801;-77
2021/08/08 03:49:09;;;;;;;7.40;2.33;;;;;;;;;;4994815;28;20390;-77
2021/08/08 03:55:07;;;;;;;6.33;2.10;;;;;;;;;;5010587;23;20467;-77
2021/08/08 03:57:38;;;;;;;4.10;1.93;;;;;;;;;;4955992;28;20539;-77
2021/08/08 04:00:12;;;;;;;4.80;2.17;;;;;;;;;;4956855;29;20420;-76
2021/08/08 04:02:39;;;;;;;4.43;2.10;;;;;;;;;;4941449;29;20414;-76
2021/08/08 04:05:05;;;;;;;12.43;2.53;;;;;;;;;;4963307;28;20494;-77
2021/08/08 04:07:31;;;;;;;8.13;2.43;;;;;;;;;;4975787;28;20411;-77
2021/08/08 04:10:24;;;;;;;14.43;2.83;;;;;;;;;;4975796;28;21018;-77
2021/08/08 04:12:50;;;;;;;8.23;2.80;;;;;;;;;;4936802;29;20392;-78
2021/08/08 04:15:19;;;;;;;3.77;2.30;;;;;;;;;;4973971;28;20493;-78
2021/08/08 04:17:50;;;;;;;9.63;2.70;;;;;;;;;;4975535;28;20467;-77
2021/08/08 04:20:28;;;;;;;9.07;2.60;;;;;;;;;;4975609;28;20416;-77
2021/08/08 04:22:54;;;;;;;5.23;2.37;;;;;;;;;;4992330;28;20832;-77
2021/08/08 04:28:17;;;;;;;9.23;2.50;;;;;;;;;;4995267;28;20465;-77
2021/08/08 04:31:12;;;;;;;14.13;2.93;;;;;;;;;;4996849;28;20476;-77
2021/08/08 04:33:53;;;;;;;7.00;3.10;;;;;;;;;;4979365;28;20434;-77
2021/08/08 04:36:19;;;;;;;7.83;3.00;;;;;;;;;;4996841;28;20466;-77
2021/08/08 04:38:59;;;;;;;11.87;2.50;;;;;;;;;;4996922;28;20497;-77
2021/08/08 04:41:53;;;;;;;7.07;3.00;;;;;;;;;;4996468;28;20782;-77
2021/08/08 04:44:20;;;;;;;6.07;3.10;;;;;;;;;;4978835;28;20844;-77
2021/08/08 04:47:12;;;;;;;6.97;2.43;;;;;;;;;;4996744;28;20501;-77
2021/08/08 04:50:08;;;;;;;6.33;2.40;;;;;;;;;;4993300;28;20426;-77
2021/08/08 04:52:35;;;;;;;6.47;2.40;;;;;;;;;;4995893;28;20405;-77
2021/08/08 04:55:20;;;;;;;6.40;2.33;;;;;;;;;;4996036;28;20470;-77
2021/08/08 04:57:59;;;;;;;11.80;3.00;;;;;;;;;;4996507;28;20410;-77
2021/08/08 05:00:25;;;;;;;6.27;3.20;;;;;;;;;;4995896;28;20410;-77
2021/08/08 05:03:16;;;;;;;4.43;2.23;;;;;;;;;;4996307;28;20388;-77
2021/08/08 05:05:50;;;;;;;5.07;2.10;;;;;;;;;;5032020;22;20563;-77
2021/08/08 05:08:27;;;;;;;3.40;2.30;;;;;;;;;;5015941;28;20388;-77
2021/08/08 05:11:18;;;;;;;;;;;;;;;;;;;;;
2021/08/08 05:13:57;;;;;;;5.53;2.37;;;;;;;;;;5015159;28;20893;-77
2021/08/08 05:17:05;;;;;;;10.23;2.63;;;;;;;;;;4996555;28;20831;-77
2021/08/08 05:23:21;;;;;;;9.70;2.20;;;;;;;;;;4974844;28;20422;-77
2021/08/08 05:25:56;;;;;;;5.13;2.07;;;;;;;;;;4954195;28;20429;-77
2021/08/08 05:28:21;;;;;;;8.03;2.87;;;;;;;;;;5015658;28;20425;-77
2021/08/08 05:30:48;;;;;;;4.80;2.43;;;;;;;;;;5015486;28;20422;-77
2021/08/08 05:33:16;;;;;;;6.90;2.30;;;;;;;;;;5015126;28;20417;-76
2021/08/08 05:36:04;;;;;;;6.73;2.30;;;;;;;;;;5015073;28;20467;-77
2021/08/08 05:38:35;;;;;;;5.37;2.27;;;;;;;;;;5015279;28;20501;-77
2021/08/08 05:41:12;;;;;;;8.47;2.20;;;;;;;;;;5015410;28;20380;-77
2021/08/08 05:46:41;;;;;;;6.10;2.57;;;;;;;;;;5000781;28;20445;-76
2021/08/08 05:49:12;;;;;;;6.27;2.60;;;;;;;;;;5015061;28;20441;-77
2021/08/08 05:52:11;;;;;;;4.90;1.97;;;;;;;;;;5014966;28;20408;-77
2021/08/08 05:54:37;;;;;;;7.23;2.20;;;;;;;;;;5013957;28;20500;-77
2021/08/08 05:57:25;;;;;;;7.30;2.43;;;;;;;;;;5014741;28;20508;-78
2021/08/08 06:00:17;;;;;;;7.03;2.83;;;;;;;;;;5014681;28;20431;-77
2021/08/08 06:02:55;;;;;;;6.87;2.33;;;;;;;;;;4993715;28;20914;-77
2021/08/08 06:06:03;;;;;;;;;;;;;;;;;;;;;
2021/08/08 06:08:30;;;;;;;7.90;1.80;;;;;;;;;;4932724;29;20453;-77
2021/08/08 06:14:09;;;;;;;5.67;1.90;;;;;;;;;;4925505;29;20445;-77
2021/08/08 06:17:07;;;;;;;5.97;2.00;;;;;;;;;;4934970;29;20867;-76
2021/08/08 06:19:33;;;;;;;6.00;2.20;;;;;;;;;;4896880;29;20428;-77
2021/08/08 06:21:59;;;;;;;5.40;1.87;;;;;;;;;;4932934;29;20380;-77
2021/08/08 06:24:25;;;;;;;4.97;1.90;;;;;;;;;;4934376;29;20412;-78
2021/08/08 06:27:22;;;;;;;;;;;;;;;;;;;;;
2021/08/08 06:30:20;;;;;;;;;;;;;;;;;;;;;
2021/08/08 06:36:13;;;;;;;5.20;2.20;;;;;;;;;;4896432;29;20496;-77
2021/08/08 06:38:45;;;;;;;5.23;3.20;;;;;;;;;;4959770;28;20417;-77
2021/08/08 06:41:45;;;;;;;8.07;2.20;;;;;;;;;;5014168;28;20372;-76
2021/08/08 06:47:12;;;;;;;2.97;2.00;;;;;;;;;;4953139;29;20508;-76
2021/08/08 06:49:41;;;;;;;5.60;2.03;;;;;;;;;;4953854;28;20868;-77
2021/08/08 06:58:21;;;;;;;7.13;2.57;;;;;;;;;;4934322;29;20391;-76
2021/08/08 07:00:50;;;;;;;6.17;2.33;;;;;;;;;;4934093;29;20512;-77
2021/08/08 07:03:16;;;;;;;5.40;1.90;;;;;;;;;;4961848;28;20773;-77
2021/08/08 07:05:42;;;;;;;7.20;2.17;;;;;;;;;;5013624;28;20425;-79
2021/08/08 07:08:11;;;;;;;6.57;2.30;;;;;;;;;;4996118;28;20425;-81
2021/08/08 07:10:43;;;;;;;3.20;2.03;;;;;;;;;;5013289;28;20384;-77
2021/08/08 07:13:15;;;;;;;5.47;2.37;;;;;;;;;;5013153;28;20848;-77
2021/08/08 07:15:43;;;;;;;8.87;2.50;;;;;;;;;;5013343;28;20472;-77
2021/08/08 07:18:37;;;;;;;8.77;2.53;;;;;;;;;;5013151;28;20777;-77
2021/08/08 07:21:06;;;;;;;5.33;2.50;;;;;;;;;;5013503;28;20390;-77
2021/08/08 07:24:04;;;;;;;;;;;;;;;;;;;;;
2021/08/08 07:32:07;;;;;;;7.23;1.90;;;;;;;;;;5293903;23;20467;-77
2021/08/08 07:37:14;;;;;;;7.50;2.77;;;;;;;;;;5250659;23;20505;-77
2021/08/08 07:39:58;;;;;;;9.30;2.50;;;;;;;;;;5013218;28;20471;-76
2021/08/08 07:42:24;;;;;;;5.60;2.40;;;;;;;;;;5012986;28;20384;-78
2021/08/08 07:44:50;;;;;;;5.10;2.13;;;;;;;;;;5013030;28;20426;-77
2021/08/08 07:47:19;;;;;;;6.07;2.10;;;;;;;;;;4995871;28;20449;-77
2021/08/08 07:49:45;;;;;;;7.30;2.40;;;;;;;;;;5013014;28;20446;-79
2021/08/08 07:52:11;;;;;;;7.83;3.07;;;;;;;;;;5012892;28;20788;-80
2021/08/08 07:54:37;;;;;;;11.13;2.60;;;;;;;;;;5012375;28;20461;-79
2021/08/08 07:57:03;;;;;;;7.67;2.50;;;;;;;;;;5013061;28;20381;-81
2021/08/08 07:59:30;;;;;;;8.60;2.57;;;;;;;;;;5013167;28;20425;-79
2021/08/08 08:01:56;;;;;;;8.87;2.63;;;;;;;;;;5012993;28;20381;-79
2021/08/08 08:04:43;;;;;;;8.63;1.80;;;;;;;;;;5012252;28;20961;-80
2021/08/08 08:07:09;;;;;;;7.63;1.90;;;;;;;;;;4981286;28;20399;-80
2021/08/08 08:09:35;;;;;;;4.33;2.10;;;;;;;;;;5012979;28;20418;-81
2021/08/08 08:12:01;;;;;;;8.20;2.60;;;;;;;;;;5013069;28;20381;-80
2021/08/08 08:14:27;;;;;;;4.27;1.80;;;;;;;;;;5012547;28;20470;-80
2021/08/08 08:16:53;;;;;;;3.40;1.50;;;;;;;;;;5012642;28;20403;-80
2021/08/08 08:19:19;;;;;;;5.47;1.97;;;;;;;;;;5012883;28;20432;-79
2021/08/08 08:21:45;;;;;;;6.93;2.00;;;;;;;;;;5012970;28;20416;-80
2021/08/08 08:24:11;;;;;;;5.30;2.40;;;;;;;;;;5012593;28;20840;-80
2021/08/08 08:26:37;;;;;;;5.30;1.87;;;;;;;;;;4995147;28;20809;-78
2021/08/08 08:29:03;;;;;;;8.57;2.70;;;;;;;;;;4995295;28;20504;-80
2021/08/08 08:31:29;;;;;;;7.90;2.20;;;;;;;;;;5012664;28;20906;-80
2021/08/08 08:33:55;;;;;;;7.30;1.80;;;;;;;;;;4979133;28;20397;-79
2021/08/08 08:36:21;;;;;;;8.97;2.10;;;;;;;;;;5015793;28;20500;-80
2021/08/08 08:38:47;;;;;;;5.13;1.63;;;;;;;;;;5016273;28;20396;-80
2021/08/08 08:41:14;;;;;;;6.17;2.00;;;;;;;;;;4998459;28;20409;-80
2021/08/08 08:43:40;;;;;;;8.90;2.40;;;;;;;;;;5016090;28;20402;-79
2021/08/08 08:46:07;;;;;;;3.60;1.60;;;;;;;;;;5016130;28;20437;-81
2021/08/08 08:48:33;;;;;;;6.10;1.73;;;;;;;;;;5015904;28;20395;-79
2021/08/08 08:51:01;;;;;;;6.50;1.90;;;;;;;;;;5015695;28;20428;-80
2021/08/08 08:53:27;;;;;;;6.20;1.87;;;;;;;;;;5015665;28;20410;-80
2021/08/08 08:55:53;;;;;;;6.43;2.07;;;;;;;;;;5015872;28;20461;-80
2021/08/08 08:58:19;;;;;;;8.53;2.50;;;;;;;;;;4998455;28;20918;-79
2021/08/08 09:00:46;;;;;;;6.27;2.23;;;;;;;;;;5015821;28;20810;-79
2021/08/08 09:03:12;;;;;;;6.47;2.30;;;;;;;;;;4997857;28;20410;-80
2021/08/08 09:05:38;;;;;;;8.27;2.60;;;;;;;;;;5015742;28;20517;-80
2021/08/08 09:08:05;;;;;;;4.50;1.73;;;;;;;;;;5015897;28;20407;-82
2021/08/08 09:10:31;;;;;;;7.43;2.50;;;;;;;;;;5015608;28;20508;-82
2021/08/08 09:12:57;;;;;;;5.60;2.20;;;;;;;;;;5015419;28;20426;-82
2021/08/08 09:15:35;;;;;;;6.40;1.80;;;;;;;;;;5015294;28;20529;-82
2021/08/08 09:18:11;;;;;;;7.20;1.83;;;;;;;;;;5015655;28;20475;-82
2021/08/08 09:20:37;;;;;;;9.20;1.80;;;;;;;;;;5015510;28;20418;-81
2021/08/08 09:23:03;;;;;;;5.57;1.67;;;;;;;;;;5015420;28;20478;-83
2021/08/08 09:25:29;;;;;;;4.73;2.10;;;;;;;;;;5015595;28;20415;-80
2021/08/08 09:28:06;;;;;;;5.67;2.30;;;;;;;;;;4998265;28;20468;-81
2021/08/08 09:30:35;;;;;;;9.47;3.00;;;;;;;;;;4997866;28;20428;-81
2021/08/08 09:33:06;;;;;;;6.83;2.30;;;;;;;;;;5015120;28;20400;-82
2021/08/08 09:35:39;;;;;;;7.27;1.90;;;;;;;;;;5015053;28;20553;-80
2021/08/08 09:38:07;;;;;;;5.33;2.17;;;;;;;;;;5015073;28;20805;-81
2021/08/08 09:40:33;;;;;;;5.80;2.00;;;;;;;;;;5015183;28;20377;-81
2021/08/08 09:42:59;;;;;;;5.53;1.83;;;;;;;;;;4997202;28;20483;-77
2021/08/08 09:45:36;;;;;;;5.37;2.10;;;;;;;;;;5014764;28;20424;-78
2021/08/08 09:48:02;;;;;;;4.87;1.60;;;;;;;;;;4997684;28;20903;-79
2021/08/08 09:50:30;;;;;;;8.40;2.13;;;;;;;;;;5015239;28;20483;-80
2021/08/08 09:52:58;;;;;;;4.63;1.50;;;;;;;;;;4997722;28;20465;-78
2021/08/08 09:55:33;;;;;;;6.63;1.90;;;;;;;;;;5014238;28;20508;-78
2021/08/08 09:57:59;;;;;;;5.97;2.20;;;;;;;;;;5014834;28;20409;-79
2021/08/08 10:00:29;;;;;;;9.40;1.83;;;;;;;;;;5014964;28;20425;-79
2021/08/08 10:02:56;;;;;;;2.57;1.40;;;;;;;;;;5014668;28;20406;-80
2021/08/08 10:05:23;;;;;;;7.30;2.10;;;;;;;;;;5014731;28;20438;-77
2021/08/08 10:07:50;;;;;;;8.70;3.13;;;;;;;;;;5014711;28;20413;-78
2021/08/08 10:10:16;;;;;;;8.90;2.80;;;;;;;;;;5014710;28;20421;-78
2021/08/08 10:13:01;;;;;;;2.70;1.43;;;;;;;;;;5014537;28;20456;-80
2021/08/08 10:15:27;;;;;;;3.77;1.60;;;;;;;;;;5014384;28;20483;-80
2021/08/08 10:17:54;;;;;;;6.40;2.37;;;;;;;;;;5014427;28;20430;-80
2021/08/08 10:20:21;;;;;;;4.50;1.73;;;;;;;;;;5014475;28;20818;-77
2021/08/08 10:22:48;;;;;;;4.63;1.80;;;;;;;;;;5014122;28;20937;-80
2021/08/08 10:25:18;;;;;;;5.83;1.77;;;;;;;;;;5014259;28;20513;-79
2021/08/08 10:27:44;;;;;;;6.80;1.80;;;;;;;;;;5014257;28;20794;-78
2021/08/08 10:30:11;;;;;;;3.07;1.67;;;;;;;;;;5014189;28;20422;-77
2021/08/08 10:32:37;;;;;;;3.57;1.90;;;;;;;;;;4996627;28;20416;-79
2021/08/08 10:35:13;;;;;;;8.33;1.87;;;;;;;;;;5013462;28;20443;-78
2021/08/08 10:37:40;;;;;;;4.10;1.27;;;;;;;;;;5012464;28;20437;-78
2021/08/08 10:40:06;;;;;;;4.57;1.70;;;;;;;;;;5014417;28;20384;-76
2021/08/08 10:42:42;;;;;;;8.60;1.87;;;;;;;;;;5014275;28;20417;-78
2021/08/08 10:45:20;;;;;;;4.03;1.30;;;;;;;;;;5014204;28;20878;-77
2021/08/08 10:47:52;;;;;;;4.80;1.63;;;;;;;;;;5014253;28;20405;-80
2021/08/08 10:50:18;;;;;;;3.10;1.33;;;;;;;;;;5014201;28;20890;-80
2021/08/08 10:52:45;;;;;;;3.93;1.50;;;;;;;;;;5013985;28;20414;-81
2021/08/08 10:55:22;;;;;;;2.43;1.33;;;;;;;;;;5013864;28;20466;-78
2021/08/08 10:57:48;;;;;;;4.23;1.83;;;;;;;;;;5013442;28;20441;-79
2021/08/08 11:00:15;;;;;;;3.73;1.70;;;;;;;;;;4996125;28;20984;-81
2021/08/08 11:02:44;;;;;;;2.40;1.23;;;;;;;;;;5013774;28;20388;-79
2021/08/08 11:05:14;;;;;;;5.47;1.40;;;;;;;;;;5013830;28;20837;-78
2021/08/08 11:07:41;;;;;;;6.60;1.60;;;;;;;;;;5013737;28;20421;-76
2021/08/08 11:10:08;;;;;;;3.53;1.37;;;;;;;;;;5013565;28;20881;-78
2021/08/08 11:12:38;;;;;;;6.03;1.60;;;;;;;;;;5013524;28;20422;-76
2021/08/08 11:15:07;;;;;;;2.97;1.60;;;;;;;;;;5013319;28;20451;-75
2021/08/08 11:17:37;;;;;;;5.70;1.50;;;;;;;;;;5013543;28;20489;-75
2021/08/08 11:20:04;;;;;;;3.73;1.27;;;;;;;;;;5013444;28;20740;-76
2021/08/08 11:22:30;;;;;;;3.93;1.60;;;;;;;;;;5013452;28;20380;-75
2021/08/08 11:25:00;;;;;;;2.90;1.53;;;;;;;;;;5013121;28;20487;-76
2021/08/08 11:27:30;;;;;;;2.50;1.27;;;;;;;;;;5013762;28;20874;-76
2021/08/08 11:29:56;;;;;;;1.80;1.20;;;;;;;;;;5013476;28;20428;-76
2021/08/08 11:32:27;;;;;;;1.73;1.00;;;;;;;;;;5013447;28;20552;-75
2021/08/08 11:35:26;;;;;;;2.90;1.30;;;;;;;;;;5013045;28;20957;-76
2021/08/08 11:37:53;;;;;;;4.80;1.50;;;;;;;;;;4999213;28;20425;-76
2021/08/08 11:40:31;;;;;;;4.70;1.73;;;;;;;;;;5013294;28;20890;-77
2021/08/08 11:42:59;;;;;;;3.07;1.37;;;;;;;;;;5012725;28;20413;-75
2021/08/08 11:45:54;;;;;;;7.00;1.40;;;;;;;;;;5013150;28;20432;-76
2021/08/08 11:48:21;;;;;;;2.53;1.40;;;;;;;;;;5011285;28;20455;-76
2021/08/08 11:50:58;;;;;;;5.77;1.57;;;;;;;;;;4995879;28;20428;-78
2021/08/08 11:53:32;;;;;;;3.37;1.60;;;;;;;;;;5012922;28;20484;-79
2021/08/08 11:56:09;;;;;;;5.70;1.30;;;;;;;;;;5013308;28;20461;-77
2021/08/08 11:58:44;;;;;;;4.70;1.70;;;;;;;;;;5013254;28;20385;-78
2021/08/08 12:01:11;;;;;;;2.33;1.30;;;;;;;;;;5013208;28;20471;-77
2021/08/08 12:03:40;;;;;;;3.40;1.40;;;;;;;;;;5012800;28;20923;-77
2021/08/08 12:06:06;;;;;;;3.10;1.03;;;;;;;;;;5013037;28;20496;-78
2021/08/08 12:08:32;;;;;;;4.77;1.60;;;;;;;;;;5012889;28;20425;-79
2021/08/08 12:11:00;;;;;;;4.20;2.87;;;;;;;;;;5016001;28;20440;-79
2021/08/08 12:13:26;;;;;;;3.10;1.10;;;;;;;;;;4999494;28;20417;-77
2021/08/08 12:15:52;;;;;;;1.30;1.20;;;;;;;;;;5016733;28;20534;-77
2021/08/08 12:18:28;;;;;;;2.73;1.03;;;;;;;;;;5016680;28;20468;-78
2021/08/08 12:20:54;;;;;;;4.80;1.60;;;;;;;;;;4999003;28;20395;-78
2021/08/08 12:23:24;;;;;;;3.57;1.20;;;;;;;;;;5016457;28;20889;-78
2021/08/08 12:25:57;;;;;;;4.67;1.20;;;;;;;;;;5016601;28;20432;-79
2021/08/08 12:28:23;;;;;;;2.77;1.20;;;;;;;;;;5016795;28;20463;-78
2021/08/08 12:30:49;;;;;;;2.83;1.37;;;;;;;;;;5016229;28;20431;-78
2021/08/08 12:33:16;;;;;;;2.67;1.03;;;;;;;;;;5016148;28;20843;-78
2021/08/08 12:35:43;;;;;;;2.30;1.20;;;;;;;;;;4998548;28;20535;-78
2021/08/08 12:38:13;;;;;;;2.37;1.20;;;;;;;;;;5016584;28;20829;-78
2021/08/08 12:40:52;;;;;;;3.90;1.43;;;;;;;;;;5016517;28;20807;-79
2021/08/08 12:43:22;;;;;;;1.67;1.07;;;;;;;;;;5016082;28;20409;-78
2021/08/08 12:45:49;;;;;;;2.97;1.20;;;;;;;;;;5016437;28;20426;-78
2021/08/08 12:48:15;;;;;;;4.53;1.03;;;;;;;;;;5016398;28;20948;-78
2021/08/08 12:50:46;;;;;;;1.60;0.93;;;;;;;;;;5016395;28;20410;-79
2021/08/08 12:53:15;;;;;;;3.33;1.50;;;;;;;;;;5015989;28;20394;-79
2021/08/08 12:55:43;;;;;;;2.83;1.10;;;;;;;;;;5016132;28;20469;-79
2021/08/08 12:58:09;;;;;;;2.17;0.97;;;;;;;;;;5016143;28;20475;-79
2021/08/08 13:00:35;;;;;;;1.43;0.80;;;;;;;;;;5016015;28;20445;-79
2021/08/08 13:03:01;;;;;;;2.07;1.10;;;;;;;;;;5015705;28;20771;-79
2021/08/08 13:05:27;;;;;;;3.10;1.10;;;;;;;;;;5015936;28;20446;-79
2021/08/08 13:07:53;;;;;;;2.47;0.90;;;;;;;;;;4998369;28;20815;-78
2021/08/08 13:10:19;;;;;;;3.30;1.13;;;;;;;;;;5016012;28;20400;-79
2021/08/08 13:12:46;;;;;;;3.60;1.30;;;;;;;;;;5015666;28;20418;-78
2021/08/08 13:15:12;;;;;;;5.13;1.27;;;;;;;;;;5015556;28;20556;-79
2021/08/08 13:17:38;;;;;;;6.00;2.97;;;;;;;;;;5015771;28;20395;-81
2021/08/08 13:20:08;;;;;;;5.53;1.77;;;;;;;;;;4997922;28;20938;-81
2021/08/08 13:22:34;;;;;;;4.57;2.67;;;;;;;;;;4982251;28;20748;-80
2021/08/08 13:25:00;;;;;;;3.93;2.00;;;;;;;;;;5015298;28;20582;-83
2021/08/08 13:27:27;;;;;;;4.23;2.33;;;;;;;;;;5015474;28;20385;-81
2021/08/08 13:29:53;;;;;;;5.73;2.40;;;;;;;;;;5015667;28;20517;-82
2021/08/08 13:32:19;;;;;;;4.00;1.80;;;;;;;;;;5015472;28;20901;-81
2021/08/08 13:34:45;;;;;;;3.57;1.67;;;;;;;;;;5015263;28;20521;-82
2021/08/08 13:37:13;;;;;;;2.73;1.80;;;;;;;;;;5015306;28;20425;-83
2021/08/08 13:39:39;;;;;;;3.73;2.23;;;;;;;;;;4997832;28;20396;-82
2021/08/08 13:42:05;;;;;;;3.40;1.90;;;;;;;;;;5015375;28;20398;-81
2021/08/08 13:44:31;;;;;;;2.23;1.57;;;;;;;;;;5014902;28;20400;-81
2021/08/08 13:46:57;;;;;;;3.90;1.33;;;;;;;;;;5015271;28;20389;-80
2021/08/08 13:49:26;;;;;;;7.83;1.80;;;;;;;;;;5014984;28;20464;-80
2021/08/08 13:51:52;;;;;;;8.07;1.90;;;;;;;;;;5015086;28;20495;-80
2021/08/08 13:54:19;;;;;;;3.10;1.43;;;;;;;;;;5014465;28;20459;-79
2021/08/08 13:56:45;;;;;;;5.33;1.50;;;;;;;;;;5015027;28;20489;-79
2021/08/08 13:59:11;;;;;;;9.30;1.50;;;;;;;;;;5014917;28;20464;-79
2021/08/08 14:01:37;;;;;;;6.80;2.47;;;;;;;;;;5014799;28;20385;-80
2021/08/08 14:04:03;;;;;;;4.10;1.30;;;;;;;;;;5014665;28;20743;-80
2021/08/08 14:06:29;;;;;;;6.03;1.90;;;;;;;;;;5014718;28;20437;-80
2021/08/08 14:08:55;;;;;;;1.80;1.47;;;;;;;;;;5014869;28;20916;-80
2021/08/08 14:11:21;;;;;;;3.47;1.60;;;;;;;;;;4997182;28;20400;-81
2021/08/08 14:13:47;;;;;;;1.97;1.10;;;;;;;;;;5014473;28;20388;-80
2021/08/08 14:16:13;;;;;;;8.77;1.53;;;;;;;;;;5014617;28;20792;-79
2021/08/08 14:18:39;;;;;;;3.53;1.70;;;;;;;;;;5014657;28;20392;-79
2021/08/08 14:21:06;;;;;;;6.33;1.60;;;;;;;;;;5014667;28;20417;-78
2021/08/08 14:23:32;;;;;;;4.47;1.43;;;;;;;;;;5014083;28;20476;-80
2021/08/08 14:25:58;;;;;;;5.00;1.60;;;;;;;;;;5014289;28;20437;-78
2021/08/08 14:28:24;;;;;;;5.67;1.50;;;;;;;;;;5014473;28;20785;-78
2021/08/08 14:30:51;;;;;;;6.23;1.70;;;;;;;;;;5014345;28;20424;-78
2021/08/08 14:33:17;;;;;;;4.23;2.03;;;;;;;;;;5013300;28;20380;-79
2021/08/08 14:35:43;;;;;;;5.10;1.53;;;;;;;;;;5014139;28;20478;-80
2021/08/08 14:38:09;;;;;;;6.20;1.70;;;;;;;;;;5014504;28;20395;-79
2021/08/08 14:40:35;;;;;;;9.03;1.67;;;;;;;;;;4996663;28;20425;-78
2021/08/08 14:43:01;;;;;;;2.90;1.77;;;;;;;;;;5013954;28;20414;-79
2021/08/08 14:45:27;;;;;;;6.90;1.90;;;;;;;;;;5014041;28;20446;-78
2021/08/08 14:47:53;;;;;;;3.97;1.57;;;;;;;;;;5014077;28;20862;-78
2021/08/08 14:50:19;;;;;;;1.83;1.20;;;;;;;;;;5014044;28;20497;-79
2021/08/08 14:52:45;;;;;;;2.60;1.43;;;;;;;;;;5013887;28;20505;-79
2021/08/08 14:55:11;;;;;;;4.27;1.60;;;;;;;;;;5014104;28;20552;-79
2021/08/08 14:57:37;;;;;;;3.97;1.37;;;;;;;;;;5013922;28;20385;-78
2021/08/08 15:00:04;;;;;;;4.73;1.30;;;;;;;;;;5013714;28;20417;-79
2021/08/08 15:02:30;;;;;;;6.20;1.57;;;;;;;;;;5013929;28;20434;-79
2021/08/08 15:04:56;;;;;;;3.10;1.30;;;;;;;;;;5013455;28;20412;-79
2021/08/08 15:07:22;;;;;;;3.03;1.27;;;;;;;;;;5013781;28;20402;-79
2021/08/08 15:09:48;;;;;;;5.37;1.53;;;;;;;;;;5013789;28;20421;-79
2021/08/08 15:12:14;;;;;;;2.83;1.13;;;;;;;;;;5013537;28;20513;-79
2021/08/08 15:14:40;;;;;;;4.20;1.60;;;;;;;;;;5013150;28;20412;-79
2021/08/08 15:17:06;;;;;;;2.57;1.00;;;;;;;;;;5013724;28;20434;-79
2021/08/08 15:19:32;;;;;;;7.60;2.33;;;;;;;;;;5013573;28;20414;-78
2021/08/08 15:21:58;;;;;;;4.33;1.70;;;;;;;;;;5013542;28;20738;-79
2021/08/08 15:24:24;;;;;;;3.20;1.67;;;;;;;;;;5013233;28;20373;-78
2021/08/08 15:26:50;;;;;;;2.60;1.33;;;;;;;;;;5013521;28;20774;-79
2021/08/08 15:29:16;;;;;;;3.60;1.43;;;;;;;;;;4979798;28;20404;-79
2021/08/08 15:31:42;;;;;;;2.30;1.30;;;;;;;;;;5013424;28;20437;-79
2021/08/08 15:34:08;;;;;;;5.50;1.80;;;;;;;;;;5012953;28;20413;-79
2021/08/08 15:36:34;;;;;;;3.50;1.40;;;;;;;;;;5013218;28;20615;-79
2021/08/08 15:39:00;;;;;;;1.80;1.30;;;;;;;;;;5013535;28;20492;-79
2021/08/08 15:41:28;;;;;;;3.40;1.27;;;;;;;;;;4996027;28;20493;-79
2021/08/08 15:43:54;;;;;;;3.10;1.17;;;;;;;;;;5015503;28;20402;-79
2021/08/08 15:46:20;;;;;;;3.10;1.20;;;;;;;;;;5019697;28;20758;-79